Time;durP1;ratioP1;P1;durP2;ratioP2;P2;SDS_P1;SDS_P2;PMS_P1;PMS_P2;Temp;Humidity;BMP_temperature;BMP_pressure;BME280_temperature;BME280_humidity;BME280_pressure;Samples;Min_cycle;Max_cycle;Signal;HPM_P1;HPM_P2
2021/01/07 00:00:12;;;;;;;23.60;16.70;;;;;;;;;;5096901;28;20170;-82
2021/01/07 00:02:37;;;;;;;22.17;15.83;;;;;;;;;;5096761;28;20178;-83
2021/01/07 00:05:03;;;;;;;26.17;17.83;;;;;;;;;;5096418;28;20309;-83
2021/01/07 00:07:29;;;;;;;29.20;18.20;;;;;;;;;;5096792;28;20199;-83
2021/01/07 00:09:54;;;;;;;25.63;17.20;;;;;;;;;;5096935;28;20174;-82
2021/01/07 00:12:19;;;;;;;24.53;16.90;;;;;;;;;;5096418;28;20231;-83
2021/01/07 00:14:44;;;;;;;30.73;19.60;;;;;;;;;;5096181;28;20197;-83
2021/01/07 00:17:10;;;;;;;30.17;19.57;;;;;;;;;;5096334;28;20175;-83
2021/01/07 00:19:35;;;;;;;29.10;18.57;;;;;;;;;;5096209;28;20235;-83
2021/01/07 00:22:00;;;;;;;31.20;21.17;;;;;;;;;;5096476;28;20174;-83
2021/01/07 00:24:26;;;;;;;32.67;21.00;;;;;;;;;;5096389;28;20167;-82
2021/01/07 00:26:51;;;;;;;31.80;20.63;;;;;;;;;;5095974;28;20229;-83
2021/01/07 00:29:16;;;;;;;29.43;20.23;;;;;;;;;;5096300;28;20163;-82
2021/01/07 00:31:42;;;;;;;28.43;19.37;;;;;;;;;;5096038;28;20570;-82
2021/01/07 00:34:07;;;;;;;24.77;18.17;;;;;;;;;;5096486;28;20706;-82
2021/01/07 00:36:32;;;;;;;28.03;19.70;;;;;;;;;;5095806;28;20170;-83
2021/01/07 00:38:58;;;;;;;32.03;21.07;;;;;;;;;;5096119;28;20621;-82
2021/01/07 00:41:23;;;;;;;35.70;23.07;;;;;;;;;;5095949;28;20574;-82
2021/01/07 00:43:49;;;;;;;35.70;22.93;;;;;;;;;;5096022;28;20163;-82
2021/01/07 00:46:14;;;;;;;37.87;22.53;;;;;;;;;;5091851;28;20510;-82
2021/01/07 00:48:40;;;;;;;36.57;22.60;;;;;;;;;;5092410;28;20202;-82
2021/01/07 00:51:06;;;;;;;34.70;21.97;;;;;;;;;;5077448;28;20577;-82
2021/01/07 00:53:32;;;;;;;31.60;20.70;;;;;;;;;;5095671;28;20212;-82
2021/01/07 00:55:57;;;;;;;31.20;19.40;;;;;;;;;;5077579;28;20178;-82
2021/01/07 00:58:23;;;;;;;28.57;19.17;;;;;;;;;;5095679;28;20178;-82
2021/01/07 01:00:48;;;;;;;29.23;19.40;;;;;;;;;;5095408;28;20219;-82
2021/01/07 01:03:13;;;;;;;28.63;19.93;;;;;;;;;;5094127;28;20190;-82
2021/01/07 01:05:39;;;;;;;32.23;21.77;;;;;;;;;;5095533;28;20222;-82
2021/01/07 01:08:04;;;;;;;27.63;19.57;;;;;;;;;;5095629;28;20657;-83
2021/01/07 01:10:29;;;;;;;31.70;20.17;;;;;;;;;;5095515;28;20178;-83
2021/01/07 01:12:55;;;;;;;31.60;20.67;;;;;;;;;;5095841;28;20174;-83
2021/01/07 01:15:20;;;;;;;30.00;19.93;;;;;;;;;;5118919;28;20193;-82
2021/01/07 01:17:45;;;;;;;29.33;19.83;;;;;;;;;;5106965;28;20167;-83
2021/01/07 01:20:12;;;;;;;30.77;20.43;;;;;;;;;;5095320;28;20171;-83
2021/01/07 01:22:37;;;;;;;30.77;21.23;;;;;;;;;;5095104;28;20209;-83
2021/01/07 01:25:08;;;;;;;31.97;21.67;;;;;;;;;;5094973;28;20174;-82
2021/01/07 01:27:34;;;;;;;36.03;23.33;;;;;;;;;;5094783;28;20331;-82
2021/01/07 01:29:59;;;;;;;36.80;23.60;;;;;;;;;;5094765;28;20174;-82
2021/01/07 01:32:25;;;;;;;32.87;23.03;;;;;;;;;;5095351;28;20179;-82
2021/01/07 01:34:50;;;;;;;37.83;25.00;;;;;;;;;;5094778;28;20584;-82
2021/01/07 01:37:16;;;;;;;37.63;24.77;;;;;;;;;;5095265;28;20221;-82
2021/01/07 01:39:41;;;;;;;36.77;24.23;;;;;;;;;;5094685;28;20189;-82
2021/01/07 01:42:06;;;;;;;33.87;22.90;;;;;;;;;;5094598;28;20170;-82
2021/01/07 01:44:32;;;;;;;31.67;21.73;;;;;;;;;;5094859;28;20664;-82
2021/01/07 01:46:57;;;;;;;36.97;22.63;;;;;;;;;;5087062;28;20566;-82
2021/01/07 01:49:23;;;;;;;37.50;22.43;;;;;;;;;;5094531;28;20173;-82
2021/01/07 01:51:49;;;;;;;35.97;23.43;;;;;;;;;;5094406;28;20182;-83
2021/01/07 01:54:15;;;;;;;37.53;23.27;;;;;;;;;;5094668;28;20236;-82
2021/01/07 01:56:42;;;;;;;35.37;23.60;;;;;;;;;;5094608;28;20272;-83
2021/01/07 01:59:08;;;;;;;34.80;22.70;;;;;;;;;;5094246;28;20271;-83
2021/01/07 02:01:33;;;;;;;34.53;23.70;;;;;;;;;;5094256;28;20185;-83
2021/01/07 02:03:58;;;;;;;37.03;23.77;;;;;;;;;;5094667;28;20166;-83
2021/01/07 02:06:26;;;;;;;37.90;23.77;;;;;;;;;;5093932;28;20223;-82
2021/01/07 02:08:52;;;;;;;37.97;23.67;;;;;;;;;;5094029;28;20194;-82
2021/01/07 02:11:17;;;;;;;33.10;22.77;;;;;;;;;;5094274;28;20295;-83
2021/01/07 02:13:43;;;;;;;32.73;22.20;;;;;;;;;;5093527;28;20235;-83
2021/01/07 02:16:09;;;;;;;33.53;22.93;;;;;;;;;;5093998;28;20571;-83
2021/01/07 02:18:34;;;;;;;37.03;23.13;;;;;;;;;;5093877;28;20293;-82
2021/01/07 02:20:59;;;;;;;33.20;23.37;;;;;;;;;;5094060;28;20344;-82
2021/01/07 02:23:25;;;;;;;34.77;23.53;;;;;;;;;;5093813;28;20174;-83
2021/01/07 02:25:50;;;;;;;35.23;23.30;;;;;;;;;;5093826;28;20660;-83
2021/01/07 02:28:16;;;;;;;36.90;23.90;;;;;;;;;;5093530;28;20202;-83
2021/01/07 02:30:41;;;;;;;36.33;24.30;;;;;;;;;;5093972;28;20250;-83
2021/01/07 02:33:06;;;;;;;38.10;24.73;;;;;;;;;;5093873;28;20216;-83
2021/01/07 02:35:32;;;;;;;38.27;23.90;;;;;;;;;;5093876;28;20166;-83
2021/01/07 02:37:57;;;;;;;36.23;22.97;;;;;;;;;;5075551;28;20179;-83
2021/01/07 02:40:22;;;;;;;35.93;23.00;;;;;;;;;;5093720;28;20265;-83
2021/01/07 02:42:48;;;;;;;35.30;22.97;;;;;;;;;;5093646;28;20567;-83
2021/01/07 02:45:13;;;;;;;35.83;23.60;;;;;;;;;;5077284;28;20174;-82
2021/01/07 02:47:39;;;;;;;37.97;24.63;;;;;;;;;;5093754;28;20281;-83
2021/01/07 02:50:05;;;;;;;41.50;25.57;;;;;;;;;;5094599;28;20171;-83
2021/01/07 02:52:30;;;;;;;47.30;29.53;;;;;;;;;;5094501;28;20219;-83
2021/01/07 02:54:55;;;;;;;47.10;29.27;;;;;;;;;;5094459;28;20174;-82
2021/01/07 02:57:21;;;;;;;42.90;27.70;;;;;;;;;;5094151;28;20308;-82
2021/01/07 02:59:46;;;;;;;36.03;23.77;;;;;;;;;;5094716;28;20215;-82
2021/01/07 03:02:12;;;;;;;36.50;24.93;;;;;;;;;;5094091;28;20315;-82
2021/01/07 03:04:37;;;;;;;35.10;24.10;;;;;;;;;;5093998;28;20658;-82
2021/01/07 03:07:02;;;;;;;35.10;23.13;;;;;;;;;;5093963;28;20700;-83
2021/01/07 03:09:28;;;;;;;38.87;24.43;;;;;;;;;;5094845;28;20179;-82
2021/01/07 03:11:53;;;;;;;34.53;23.57;;;;;;;;;;5094454;28;20173;-82
2021/01/07 03:14:18;;;;;;;37.43;23.70;;;;;;;;;;5093894;28;20192;-82
2021/01/07 03:16:44;;;;;;;49.77;29.77;;;;;;;;;;5094152;28;20198;-82
2021/01/07 03:19:09;;;;;;;62.53;37.47;;;;;;;;;;5094419;28;20187;-82
2021/01/07 03:21:41;;;;;;;81.63;46.60;;;;;;;;;;5094688;28;20174;-82
2021/01/07 03:24:07;;;;;;;88.87;50.43;;;;;;;;;;5094139;28;20239;-82
2021/01/07 03:26:32;;;;;;;86.93;48.63;;;;;;;;;;5093452;28;20198;-82
2021/01/07 03:28:57;;;;;;;80.50;45.83;;;;;;;;;;5075876;28;20183;-82
2021/01/07 03:31:23;;;;;;;69.57;41.43;;;;;;;;;;5093870;28;20170;-83
2021/01/07 03:33:48;;;;;;;64.20;38.97;;;;;;;;;;5093902;28;20178;-83
2021/01/07 03:36:13;;;;;;;56.37;34.83;;;;;;;;;;5093752;28;20185;-83
2021/01/07 03:38:39;;;;;;;51.73;32.37;;;;;;;;;;5093954;28;20621;-83
2021/01/07 03:41:04;;;;;;;50.10;30.10;;;;;;;;;;5093913;28;20609;-83
2021/01/07 03:43:29;;;;;;;45.47;28.57;;;;;;;;;;5093732;28;20221;-82
2021/01/07 03:45:55;;;;;;;42.40;27.27;;;;;;;;;;5093610;28;20166;-82
2021/01/07 03:48:20;;;;;;;41.73;26.30;;;;;;;;;;5093730;28;20286;-82
2021/01/07 03:50:46;;;;;;;39.70;27.00;;;;;;;;;;5093447;28;20189;-83
2021/01/07 03:53:11;;;;;;;42.13;27.57;;;;;;;;;;5093564;28;20175;-82
2021/01/07 03:55:36;;;;;;;48.60;31.40;;;;;;;;;;5093564;28;20173;-82
2021/01/07 03:58:02;;;;;;;41.67;27.73;;;;;;;;;;5093651;28;20224;-82
2021/01/07 04:00:27;;;;;;;42.53;27.17;;;;;;;;;;5093674;28;20178;-82
2021/01/07 04:02:52;;;;;;;41.57;26.77;;;;;;;;;;5093745;28;20513;-82
2021/01/07 04:05:18;;;;;;;41.30;25.77;;;;;;;;;;5093870;28;20567;-82
2021/01/07 04:07:43;;;;;;;40.20;27.10;;;;;;;;;;5093201;28;20229;-82
2021/01/07 04:10:09;;;;;;;41.30;28.30;;;;;;;;;;5093672;28;20166;-82
2021/01/07 04:12:37;;;;;;;42.53;28.27;;;;;;;;;;5094005;28;20259;-82
2021/01/07 04:15:04;;;;;;;42.67;27.53;;;;;;;;;;5093475;28;20201;-82
2021/01/07 04:17:30;;;;;;;44.80;28.00;;;;;;;;;;5093842;28;20592;-82
2021/01/07 04:19:55;;;;;;;46.73;29.60;;;;;;;;;;5093514;28;20621;-82
2021/01/07 04:22:21;;;;;;;42.07;27.47;;;;;;;;;;5093866;28;20227;-82
2021/01/07 04:24:46;;;;;;;43.97;28.33;;;;;;;;;;5075333;28;20192;-82
2021/01/07 04:27:11;;;;;;;46.27;28.37;;;;;;;;;;5093509;28;20243;-82
2021/01/07 04:29:37;;;;;;;46.23;29.50;;;;;;;;;;5093560;28;20170;-82
2021/01/07 04:32:02;;;;;;;50.97;32.13;;;;;;;;;;5093681;28;20177;-82
2021/01/07 04:34:27;;;;;;;48.17;31.43;;;;;;;;;;5093409;28;20167;-82
2021/01/07 04:36:53;;;;;;;56.13;34.23;;;;;;;;;;5093910;28;20174;-82
2021/01/07 04:39:18;;;;;;;51.57;32.77;;;;;;;;;;5097622;28;20162;-82
2021/01/07 04:41:44;;;;;;;51.50;32.43;;;;;;;;;;5096983;28;20510;-82
2021/01/07 04:44:11;;;;;;;56.87;36.83;;;;;;;;;;5097245;28;20613;-82
2021/01/07 04:46:36;;;;;;;52.67;34.30;;;;;;;;;;5096694;28;20166;-82
2021/01/07 04:49:03;;;;;;;51.10;32.10;;;;;;;;;;5096764;28;20265;-82
2021/01/07 04:51:28;;;;;;;51.10;32.27;;;;;;;;;;5096573;28;20180;-82
2021/01/07 04:53:53;;;;;;;53.10;32.50;;;;;;;;;;5097066;28;20170;-82
2021/01/07 04:56:19;;;;;;;48.80;32.23;;;;;;;;;;5096722;28;20181;-82
2021/01/07 04:58:44;;;;;;;47.03;31.10;;;;;;;;;;5096491;28;20197;-83
2021/01/07 05:01:09;;;;;;;58.23;34.23;;;;;;;;;;5096706;28;20166;-83
2021/01/07 05:03:35;;;;;;;57.70;33.27;;;;;;;;;;5096623;28;20171;-83
2021/01/07 05:06:00;;;;;;;84.03;40.10;;;;;;;;;;5097560;28;20226;-83
2021/01/07 05:08:28;;;;;;;76.13;39.43;;;;;;;;;;5097130;28;20206;-83
2021/01/07 05:10:54;;;;;;;76.97;39.77;;;;;;;;;;5096740;28;20623;-83
2021/01/07 05:13:21;;;;;;;78.40;42.77;;;;;;;;;;5096629;28;20202;-83
2021/01/07 05:15:46;;;;;;;81.53;41.83;;;;;;;;;;5095020;28;20204;-83
2021/01/07 05:18:12;;;;;;;98.40;46.27;;;;;;;;;;5096389;28;20597;-83
2021/01/07 05:20:37;;;;;;;92.73;47.63;;;;;;;;;;5096031;28;20171;-83
2021/01/07 05:23:03;;;;;;;79.57;41.33;;;;;;;;;;5078382;28;20605;-82
2021/01/07 05:25:31;;;;;;;75.40;43.03;;;;;;;;;;5096168;28;20174;-82
2021/01/07 05:27:58;;;;;;;66.80;41.27;;;;;;;;;;5096317;28;20190;-82
2021/01/07 05:30:25;;;;;;;67.40;40.13;;;;;;;;;;5096046;28;20532;-82
2021/01/07 05:32:50;;;;;;;60.60;39.10;;;;;;;;;;5096070;28;20175;-82
2021/01/07 05:35:19;;;;;;;67.73;43.80;;;;;;;;;;5096044;28;20257;-82
2021/01/07 05:37:44;;;;;;;74.10;44.67;;;;;;;;;;5096215;28;20223;-82
2021/01/07 05:40:10;;;;;;;80.50;46.30;;;;;;;;;;5078085;28;20170;-82
2021/01/07 05:42:36;;;;;;;78.57;45.07;;;;;;;;;;5095960;28;20498;-82
2021/01/07 05:45:03;;;;;;;80.83;45.47;;;;;;;;;;5095444;28;20621;-83
2021/01/07 05:47:29;;;;;;;92.40;50.93;;;;;;;;;;5077517;28;20289;-83
2021/01/07 05:49:55;;;;;;;79.20;43.67;;;;;;;;;;5076870;28;20269;-83
2021/01/07 05:52:24;;;;;;;66.27;38.07;;;;;;;;;;5095959;28;20181;-83
2021/01/07 05:54:49;;;;;;;75.03;43.03;;;;;;;;;;5095267;28;20558;-83
2021/01/07 05:57:17;;;;;;;102.10;63.27;;;;;;;;;;5095566;28;20257;-82
2021/01/07 05:59:42;;;;;;;74.33;42.00;;;;;;;;;;5095182;28;20178;-82
2021/01/07 06:02:08;;;;;;;73.43;41.97;;;;;;;;;;5095800;28;20167;-83
2021/01/07 06:04:34;;;;;;;114.00;61.27;;;;;;;;;;5095350;28;20250;-83
2021/01/07 06:07:00;;;;;;;72.07;40.67;;;;;;;;;;5095430;28;20222;-83
2021/01/07 06:09:29;;;;;;;75.63;46.13;;;;;;;;;;5095274;28;20202;-83
2021/01/07 06:12:00;;;;;;;61.43;37.67;;;;;;;;;;5095335;28;20307;-83
2021/01/07 06:26:31;;;;;;;55.90;33.90;;;;;;;;;;5095710;28;20247;-83
2021/01/07 06:28:58;;;;;;;55.60;33.90;;;;;;;;;;5095062;28;20189;-83
2021/01/07 06:31:34;;;;;;;57.90;35.30;;;;;;;;;;5095515;28;20178;-83
2021/01/07 06:33:59;;;;;;;57.43;34.97;;;;;;;;;;5094632;28;20166;-82
2021/01/07 06:36:45;;;;;;;64.03;37.50;;;;;;;;;;5094874;28;20182;-82
2021/01/07 06:39:10;;;;;;;77.60;46.37;;;;;;;;;;5094142;28;20210;-83
2021/01/07 06:41:35;;;;;;;65.67;36.90;;;;;;;;;;5094472;28;20570;-83
2021/01/07 06:44:01;;;;;;;75.63;41.90;;;;;;;;;;5094674;28;20222;-83
2021/01/07 06:46:36;;;;;;;61.97;35.57;;;;;;;;;;5094912;28;20167;-83
2021/01/07 06:49:15;;;;;;;73.57;41.03;;;;;;;;;;5094638;28;20173;-82
2021/01/07 06:51:40;;;;;;;80.47;43.40;;;;;;;;;;5094887;28;20162;-83
2021/01/07 06:54:06;;;;;;;91.17;53.50;;;;;;;;;;5094320;28;20192;-82
2021/01/07 06:56:31;;;;;;;71.83;40.47;;;;;;;;;;5094497;28;20256;-83
2021/01/07 06:58:57;;;;;;;85.43;45.93;;;;;;;;;;5092455;28;20171;-82
2021/01/07 07:01:22;;;;;;;86.43;45.33;;;;;;;;;;5093328;28;20182;-83
2021/01/07 07:03:49;;;;;;;109.93;55.47;;;;;;;;;;5094817;28;20174;-83
2021/01/07 07:06:18;;;;;;;91.23;48.30;;;;;;;;;;5094553;28;20705;-84
2021/01/07 07:08:46;;;;;;;86.40;46.40;;;;;;;;;;5093921;28;20202;-83
2021/01/07 07:11:18;;;;;;;76.73;45.53;;;;;;;;;;5092789;28;20570;-83
2021/01/07 07:13:44;;;;;;;98.17;50.73;;;;;;;;;;5093628;28;20174;-83
2021/01/07 07:16:10;;;;;;;75.73;45.07;;;;;;;;;;5092093;28;20188;-83
2021/01/07 07:18:37;;;;;;;88.47;45.67;;;;;;;;;;5093904;28;20174;-83
2021/01/07 07:21:15;;;;;;;85.60;46.67;;;;;;;;;;5093643;28;20202;-83
2021/01/07 07:23:42;;;;;;;110.37;58.60;;;;;;;;;;5094015;28;20197;-83
2021/01/07 07:26:09;;;;;;;89.33;46.23;;;;;;;;;;5093917;28;20174;-84
2021/01/07 07:28:35;;;;;;;98.83;51.00;;;;;;;;;;5093561;28;20199;-83
2021/01/07 07:31:00;;;;;;;98.10;50.87;;;;;;;;;;5094398;28;20243;-83
2021/01/07 07:33:31;;;;;;;99.37;52.27;;;;;;;;;;5093924;28;20182;-83
2021/01/07 07:35:56;;;;;;;97.27;53.67;;;;;;;;;;5084696;28;20262;-83
2021/01/07 07:38:26;;;;;;;90.60;47.57;;;;;;;;;;5073935;28;20198;-83
2021/01/07 07:40:52;;;;;;;93.57;50.43;;;;;;;;;;5073971;28;20174;-83
2021/01/07 07:43:18;;;;;;;79.17;46.00;;;;;;;;;;5073343;28;20525;-83
2021/01/07 07:45:43;;;;;;;80.60;43.30;;;;;;;;;;5083011;28;20175;-84
2021/01/07 07:48:08;;;;;;;70.30;38.23;;;;;;;;;;5093707;28;20201;-84
2021/01/07 07:50:34;;;;;;;71.13;39.13;;;;;;;;;;5093559;28;20178;-83
2021/01/07 07:53:03;;;;;;;70.00;37.70;;;;;;;;;;5093468;28;20174;-83
2021/01/07 07:55:33;;;;;;;76.67;38.93;;;;;;;;;;5094295;28;20232;-84
2021/01/07 07:58:06;;;;;;;78.83;41.80;;;;;;;;;;5092814;28;20179;-83
2021/01/07 08:00:32;;;;;;;110.50;57.33;;;;;;;;;;5094008;28;20158;-84
2021/01/07 08:02:57;;;;;;;178.60;92.40;;;;;;;;;;5092797;28;20627;-83
2021/01/07 08:05:26;;;;;;;129.07;63.10;;;;;;;;;;5084026;28;20272;-84
2021/01/07 08:07:52;;;;;;;152.13;71.60;;;;;;;;;;5073291;28;20291;-84
2021/01/07 08:10:18;;;;;;;160.10;73.63;;;;;;;;;;5073281;28;20211;-83
2021/01/07 08:12:43;;;;;;;136.27;64.10;;;;;;;;;;5075653;28;20609;-83
2021/01/07 08:15:09;;;;;;;128.43;57.83;;;;;;;;;;5077154;28;20190;-83
2021/01/07 08:17:34;;;;;;;121.33;54.37;;;;;;;;;;5076953;28;20175;-84
2021/01/07 08:19:59;;;;;;;144.87;64.67;;;;;;;;;;5077127;28;20171;-84
2021/01/07 08:22:28;;;;;;;140.63;62.93;;;;;;;;;;5076826;28;20615;-83
2021/01/07 08:24:57;;;;;;;136.77;66.60;;;;;;;;;;5076660;28;20171;-83
2021/01/07 08:27:23;;;;;;;90.77;48.03;;;;;;;;;;5076770;28;20248;-83
2021/01/07 08:29:55;;;;;;;76.70;41.07;;;;;;;;;;5076919;28;20175;-83
2021/01/07 08:32:22;;;;;;;75.30;41.93;;;;;;;;;;5077001;28;20649;-83
2021/01/07 08:34:48;;;;;;;90.47;49.77;;;;;;;;;;5076942;28;20182;-83
2021/01/07 08:37:16;;;;;;;74.53;40.57;;;;;;;;;;5076891;28;20183;-83
2021/01/07 08:39:44;;;;;;;89.37;50.77;;;;;;;;;;5059263;28;20269;-83
2021/01/07 08:42:10;;;;;;;89.27;48.50;;;;;;;;;;5076250;28;20266;-82
2021/01/07 08:44:36;;;;;;;77.40;43.03;;;;;;;;;;5076967;28;20206;-82
2021/01/07 08:47:01;;;;;;;83.03;44.00;;;;;;;;;;5076301;28;20249;-82
2021/01/07 08:49:28;;;;;;;71.07;38.67;;;;;;;;;;5082956;28;20606;-83
2021/01/07 08:51:57;;;;;;;78.53;43.80;;;;;;;;;;5094557;28;20667;-83
2021/01/07 08:54:24;;;;;;;92.30;49.67;;;;;;;;;;5074733;28;20196;-83
2021/01/07 08:56:50;;;;;;;107.37;62.70;;;;;;;;;;5074649;28;20654;-84
2021/01/07 08:59:25;;;;;;;151.00;87.47;;;;;;;;;;5077105;28;20197;-84
2021/01/07 09:01:51;;;;;;;83.13;47.07;;;;;;;;;;5076310;28;20178;-83
2021/01/07 09:04:36;;;;;;;75.90;41.93;;;;;;;;;;5094499;28;20174;-84
2021/01/07 09:07:08;;;;;;;74.47;36.50;;;;;;;;;;5096553;28;22155;-83
2021/01/07 09:09:38;;;;;;;69.33;40.00;;;;;;;;;;5095459;28;20190;-84
2021/01/07 09:12:07;;;;;;;68.27;35.87;;;;;;;;;;5096326;28;20183;-83
2021/01/07 09:14:41;;;;;;;69.03;37.03;;;;;;;;;;5077892;28;20207;-83
2021/01/07 09:17:06;;;;;;;63.30;33.90;;;;;;;;;;5096280;28;20169;-83
2021/01/07 09:19:33;;;;;;;73.47;39.97;;;;;;;;;;5096155;28;20527;-83
2021/01/07 09:22:01;;;;;;;68.97;39.33;;;;;;;;;;5095808;28;20632;-83
2021/01/07 09:24:37;;;;;;;74.00;38.93;;;;;;;;;;5095035;28;20167;-83
2021/01/07 09:27:06;;;;;;;59.03;34.73;;;;;;;;;;5096031;28;20267;-84
2021/01/07 09:29:31;;;;;;;48.57;28.13;;;;;;;;;;5095447;28;20739;-83
2021/01/07 09:31:57;;;;;;;49.73;29.10;;;;;;;;;;5095659;28;20253;-83
2021/01/07 09:34:22;;;;;;;59.20;35.90;;;;;;;;;;5094082;28;20171;-83
2021/01/07 09:36:47;;;;;;;67.27;37.00;;;;;;;;;;5095536;28;20184;-83
2021/01/07 09:39:12;;;;;;;49.87;29.27;;;;;;;;;;5095450;28;20178;-83
2021/01/07 09:41:38;;;;;;;53.63;29.07;;;;;;;;;;5096049;28;20176;-83
2021/01/07 09:44:06;;;;;;;62.43;36.20;;;;;;;;;;5096125;28;20220;-82
2021/01/07 09:46:31;;;;;;;77.40;43.63;;;;;;;;;;5095519;28;20254;-82
2021/01/07 09:48:57;;;;;;;61.47;35.07;;;;;;;;;;5094322;28;20292;-83
2021/01/07 09:51:22;;;;;;;60.70;33.70;;;;;;;;;;5095075;28;20166;-83
2021/01/07 09:53:47;;;;;;;69.70;37.60;;;;;;;;;;5094601;28;20167;-83
2021/01/07 09:56:15;;;;;;;59.53;32.03;;;;;;;;;;5094399;28;20253;-84
2021/01/07 09:58:40;;;;;;;62.63;33.70;;;;;;;;;;5085873;28;20198;-83
2021/01/07 10:01:06;;;;;;;63.17;33.80;;;;;;;;;;5072278;28;20179;-83
2021/01/07 10:03:31;;;;;;;60.33;31.00;;;;;;;;;;5092771;28;20193;-84
2021/01/07 10:05:56;;;;;;;63.27;33.70;;;;;;;;;;5093063;28;20495;-86
2021/01/07 10:08:21;;;;;;;60.50;32.33;;;;;;;;;;5083552;28;20302;-83
2021/01/07 10:10:48;;;;;;;63.03;32.17;;;;;;;;;;5074618;28;20656;-83
2021/01/07 10:13:13;;;;;;;56.07;31.73;;;;;;;;;;5092555;28;20178;-84
2021/01/07 10:15:40;;;;;;;60.40;31.90;;;;;;;;;;5088670;28;20201;-82
2021/01/07 10:18:05;;;;;;;54.60;27.73;;;;;;;;;;5093190;28;20240;-83
2021/01/07 10:20:30;;;;;;;48.77;27.67;;;;;;;;;;5092167;28;20194;-82
2021/01/07 10:22:56;;;;;;;51.80;26.93;;;;;;;;;;5092075;28;20245;-82
2021/01/07 10:25:22;;;;;;;69.67;37.27;;;;;;;;;;5092403;28;20826;-82
2021/01/07 10:27:47;;;;;;;79.13;43.63;;;;;;;;;;5075285;28;20202;-82
2021/01/07 10:30:13;;;;;;;48.83;28.37;;;;;;;;;;5093668;28;20175;-82
2021/01/07 10:32:38;;;;;;;46.37;28.17;;;;;;;;;;5093667;28;20170;-82
2021/01/07 10:35:04;;;;;;;63.07;34.43;;;;;;;;;;5092106;28;20171;-82
2021/01/07 10:37:32;;;;;;;53.20;31.43;;;;;;;;;;5092183;28;20185;-82
2021/01/07 10:39:58;;;;;;;53.37;29.30;;;;;;;;;;5091973;28;20186;-82
2021/01/07 10:42:24;;;;;;;51.10;28.33;;;;;;;;;;5091979;28;20236;-83
2021/01/07 10:44:51;;;;;;;46.60;28.67;;;;;;;;;;5091999;28;20629;-82
2021/01/07 10:47:16;;;;;;;45.53;27.03;;;;;;;;;;5092331;28;20281;-82
2021/01/07 10:49:43;;;;;;;42.40;24.93;;;;;;;;;;5092037;28;20261;-83
2021/01/07 10:52:08;;;;;;;37.60;22.53;;;;;;;;;;5091706;28;20250;-83
2021/01/07 10:54:49;;;;;;;40.67;23.73;;;;;;;;;;5091921;28;20261;-83
2021/01/07 10:57:14;;;;;;;40.67;25.13;;;;;;;;;;5093573;28;20661;-83
2021/01/07 10:59:55;;;;;;;36.80;21.73;;;;;;;;;;5093249;28;20262;-83
2021/01/07 11:02:20;;;;;;;38.63;22.57;;;;;;;;;;5093543;28;20205;-83
2021/01/07 11:05:01;;;;;;;33.03;19.70;;;;;;;;;;5093456;28;20635;-83
2021/01/07 11:07:29;;;;;;;31.63;20.63;;;;;;;;;;5093348;28;20197;-82
2021/01/07 11:09:59;;;;;;;43.10;20.20;;;;;;;;;;5093280;28;20174;-82
2021/01/07 11:12:30;;;;;;;37.73;20.50;;;;;;;;;;5093747;28;20167;-83
2021/01/07 11:15:00;;;;;;;33.20;19.73;;;;;;;;;;5074978;28;20205;-82
2021/01/07 11:17:26;;;;;;;33.93;20.73;;;;;;;;;;5093381;28;20181;-82
2021/01/07 11:19:52;;;;;;;27.37;18.20;;;;;;;;;;5093037;28;20171;-83
2021/01/07 11:22:18;;;;;;;30.67;18.77;;;;;;;;;;5093268;28;20171;-83
2021/01/07 11:24:43;;;;;;;30.83;19.40;;;;;;;;;;5092756;28;20931;-83
2021/01/07 11:27:12;;;;;;;27.93;17.80;;;;;;;;;;5093072;28;20194;-83
2021/01/07 11:29:39;;;;;;;29.43;18.60;;;;;;;;;;5092927;28;20185;-83
2021/01/07 11:32:05;;;;;;;30.40;20.53;;;;;;;;;;5093072;28;20195;-83
2021/01/07 11:34:31;;;;;;;31.20;20.77;;;;;;;;;;5093313;28;20256;-83
2021/01/07 11:37:02;;;;;;;34.63;22.27;;;;;;;;;;5093117;28;20276;-83
2021/01/07 11:39:30;;;;;;;34.37;21.90;;;;;;;;;;5092791;28;20162;-83
2021/01/07 11:42:04;;;;;;;32.57;20.57;;;;;;;;;;5092646;28;20193;-83
2021/01/07 11:44:45;;;;;;;31.60;20.13;;;;;;;;;;5093263;28;20186;-83
2021/01/07 11:47:11;;;;;;;37.17;23.33;;;;;;;;;;5094391;28;20319;-83
2021/01/07 11:49:40;;;;;;;38.57;23.23;;;;;;;;;;5097424;28;20265;-82
2021/01/07 11:52:07;;;;;;;27.10;17.47;;;;;;;;;;5097263;28;20205;-82
2021/01/07 11:54:36;;;;;;;31.00;19.97;;;;;;;;;;5097191;28;20216;-82
2021/01/07 11:57:01;;;;;;;26.70;18.20;;;;;;;;;;5097008;28;20206;-83
2021/01/07 11:59:27;;;;;;;29.10;19.33;;;;;;;;;;5096714;28;20259;-83
2021/01/07 12:01:52;;;;;;;33.37;22.20;;;;;;;;;;5096960;28;20296;-83
2021/01/07 12:04:18;;;;;;;24.30;16.47;;;;;;;;;;5096591;28;20557;-82
2021/01/07 12:06:54;;;;;;;31.40;18.80;;;;;;;;;;5077229;28;20181;-82
2021/01/07 12:09:22;;;;;;;22.63;15.77;;;;;;;;;;5095703;28;20204;-82
2021/01/07 12:12:05;;;;;;;24.13;16.33;;;;;;;;;;5096109;28;20664;-81
2021/01/07 12:15:03;;;;;;;24.07;17.10;;;;;;;;;;5096444;28;20194;-81
2021/01/07 12:17:28;;;;;;;28.27;18.53;;;;;;;;;;5048515;28;20193;-82
2021/01/07 12:19:57;;;;;;;28.43;18.13;;;;;;;;;;5096685;28;20163;-82
2021/01/07 12:22:23;;;;;;;26.40;16.07;;;;;;;;;;5093109;28;20186;-82
2021/01/07 12:24:51;;;;;;;27.10;16.70;;;;;;;;;;5088710;28;20210;-82
2021/01/07 12:27:16;;;;;;;31.73;18.40;;;;;;;;;;5086293;28;20294;-81
2021/01/07 12:29:42;;;;;;;24.70;16.17;;;;;;;;;;5084057;28;20258;-82
2021/01/07 12:32:25;;;;;;;26.73;17.90;;;;;;;;;;5076112;28;20617;-82
2021/01/07 12:34:54;;;;;;;47.50;26.63;;;;;;;;;;5075633;28;20163;-83
2021/01/07 12:37:20;;;;;;;46.83;27.73;;;;;;;;;;5087627;28;20228;-82
2021/01/07 12:39:55;;;;;;;43.43;26.40;;;;;;;;;;5067982;28;20278;-82
2021/01/07 12:42:31;;;;;;;37.77;24.30;;;;;;;;;;5085814;28;20205;-82
2021/01/07 12:45:00;;;;;;;48.93;30.40;;;;;;;;;;5085463;28;20174;-82
2021/01/07 12:47:25;;;;;;;53.87;34.73;;;;;;;;;;5085628;28;20559;-82
2021/01/07 12:49:50;;;;;;;43.23;28.03;;;;;;;;;;5066657;28;20258;-82
2021/01/07 12:52:16;;;;;;;35.70;23.33;;;;;;;;;;5075030;28;20189;-81
2021/01/07 12:54:42;;;;;;;31.90;20.30;;;;;;;;;;5095779;28;20665;-82
2021/01/07 12:57:11;;;;;;;51.50;29.57;;;;;;;;;;5095464;28;20175;-82
2021/01/07 12:59:52;;;;;;;41.97;23.60;;;;;;;;;;5095701;28;20201;-81
2021/01/07 13:02:23;;;;;;;30.40;17.73;;;;;;;;;;5095453;28;20524;-82
2021/01/07 13:05:03;;;;;;;32.40;18.80;;;;;;;;;;5075982;28;20233;-81
2021/01/07 13:07:30;;;;;;;29.37;18.03;;;;;;;;;;5094521;28;20201;-82
2021/01/07 13:09:56;;;;;;;28.10;19.10;;;;;;;;;;5094553;28;20253;-82
2021/01/07 13:12:22;;;;;;;35.83;23.13;;;;;;;;;;5095042;28;20178;-81
2021/01/07 13:14:47;;;;;;;29.77;18.33;;;;;;;;;;5094652;28;20248;-81
2021/01/07 13:17:13;;;;;;;30.40;18.63;;;;;;;;;;5094840;28;20198;-81
2021/01/07 13:19:38;;;;;;;31.23;18.83;;;;;;;;;;5077104;28;20261;-82
2021/01/07 13:22:04;;;;;;;28.30;19.67;;;;;;;;;;5093487;28;20178;-81
2021/01/07 13:24:31;;;;;;;38.77;25.30;;;;;;;;;;5095183;28;20613;-80
2021/01/07 13:26:57;;;;;;;45.87;28.67;;;;;;;;;;5095293;28;20239;-81
2021/01/07 13:29:23;;;;;;;36.97;24.97;;;;;;;;;;5094967;28;20178;-81
2021/01/07 13:31:48;;;;;;;54.97;34.57;;;;;;;;;;5094655;28;20193;-81
2021/01/07 13:34:14;;;;;;;44.33;28.10;;;;;;;;;;5094592;28;20167;-81
2021/01/07 13:36:40;;;;;;;39.63;25.03;;;;;;;;;;5092678;28;20621;-81
2021/01/07 13:39:05;;;;;;;26.07;19.13;;;;;;;;;;5094769;28;20186;-81
2021/01/07 13:41:32;;;;;;;25.20;16.13;;;;;;;;;;5094970;28;20196;-81
2021/01/07 13:43:58;;;;;;;26.87;18.03;;;;;;;;;;5094505;28;20181;-81
2021/01/07 13:46:24;;;;;;;26.13;18.83;;;;;;;;;;5076831;28;20178;-81
2021/01/07 13:48:53;;;;;;;27.80;18.40;;;;;;;;;;5094530;28;20259;-81
2021/01/07 13:51:18;;;;;;;19.60;13.90;;;;;;;;;;5094339;28;20175;-81
2021/01/07 13:53:44;;;;;;;22.60;14.77;;;;;;;;;;5094316;28;20644;-81
2021/01/07 13:56:09;;;;;;;20.27;14.37;;;;;;;;;;5076406;28;20265;-81
2021/01/07 13:58:35;;;;;;;17.97;12.67;;;;;;;;;;5094582;28;20216;-81
2021/01/07 14:01:01;;;;;;;21.60;14.40;;;;;;;;;;5094269;28;20622;-81
2021/01/07 14:03:26;;;;;;;21.80;15.30;;;;;;;;;;5094074;28;20667;-81
2021/01/07 14:05:52;;;;;;;21.90;15.23;;;;;;;;;;5072198;28;20566;-82
2021/01/07 14:08:21;;;;;;;29.97;20.73;;;;;;;;;;5074239;28;20662;-82
2021/01/07 14:10:49;;;;;;;30.73;19.43;;;;;;;;;;5073348;28;20194;-81
2021/01/07 14:13:14;;;;;;;26.70;17.47;;;;;;;;;;5074178;28;20171;-82
2021/01/07 14:15:42;;;;;;;27.40;17.90;;;;;;;;;;5074091;28;20667;-82
2021/01/07 14:18:07;;;;;;;29.90;18.93;;;;;;;;;;5073746;28;20637;-82
2021/01/07 14:20:33;;;;;;;31.90;20.73;;;;;;;;;;5073751;28;20174;-82
2021/01/07 14:22:58;;;;;;;36.33;22.13;;;;;;;;;;5072667;28;20630;-82
2021/01/07 14:25:27;;;;;;;39.80;25.57;;;;;;;;;;5073924;28;20617;-82